sensor_id;sensor_type;location;lat;lon;timestamp;P1;durP1;ratioP1;P2;durP2;ratioP2
23614;SDS011;11985;49.404;7.734;2023-04-30T00:03:54;22.05;;;12.23;;
23614;SDS011;11985;49.404;7.734;2023-04-30T00:08:56;18.77;;;12.50;;
23614;SDS011;11985;49.404;7.734;2023-04-30T00:13:59;22.08;;;13.32;;
23614;SDS011;11985;49.404;7.734;2023-04-30T00:19:00;23.50;;;13.98;;
23614;SDS011;11985;49.404;7.734;2023-04-30T00:24:02;22.58;;;14.85;;
23614;SDS011;11985;49.404;7.734;2023-04-30T00:29:05;23.77;;;14.52;;
23614;SDS011;11985;49.404;7.734;2023-04-30T00:34:07;21.90;;;14.02;;
23614;SDS011;11985;49.404;7.734;2023-04-30T00:39:08;19.88;;;13.43;;
23614;SDS011;11985;49.404;7.734;2023-04-30T00:44:12;21.38;;;13.45;;
23614;SDS011;11985;49.404;7.734;2023-04-30T00:49:13;26.85;;;13.40;;
23614;SDS011;11985;49.404;7.734;2023-04-30T00:54:15;20.27;;;12.98;;
23614;SDS011;11985;49.404;7.734;2023-04-30T00:59:19;20.83;;;13.65;;
23614;SDS011;11985;49.404;7.734;2023-04-30T01:04:21;25.23;;;14.18;;
23614;SDS011;11985;49.404;7.734;2023-04-30T01:09:23;24.60;;;14.15;;
23614;SDS011;11985;49.404;7.734;2023-04-30T01:14:29;22.33;;;14.45;;
23614;SDS011;11985;49.404;7.734;2023-04-30T01:19:40;22.45;;;15.30;;
23614;SDS011;11985;49.404;7.734;2023-04-30T01:24:48;23.53;;;15.20;;
23614;SDS011;11985;49.404;7.734;2023-04-30T01:30:00;22.73;;;14.98;;
23614;SDS011;11985;49.404;7.734;2023-04-30T01:35:04;22.08;;;14.32;;
23614;SDS011;11985;49.404;7.734;2023-04-30T01:40:08;24.10;;;15.70;;
23614;SDS011;11985;49.404;7.734;2023-04-30T01:45:30;24.77;;;16.05;;
23614;SDS011;11985;49.404;7.734;2023-04-30T01:50:43;27.17;;;16.33;;
23614;SDS011;11985;49.404;7.734;2023-04-30T01:55:50;24.73;;;15.93;;
23614;SDS011;11985;49.404;7.734;2023-04-30T02:00:58;25.55;;;15.93;;
23614;SDS011;11985;49.404;7.734;2023-04-30T02:06:00;24.60;;;16.52;;
23614;SDS011;11985;49.404;7.734;2023-04-30T02:11:02;23.20;;;15.18;;
23614;SDS011;11985;49.404;7.734;2023-04-30T02:16:05;28.52;;;16.58;;
23614;SDS011;11985;49.404;7.734;2023-04-30T02:21:07;29.92;;;16.65;;
23614;SDS011;11985;49.404;7.734;2023-04-30T02:26:09;23.00;;;15.15;;
23614;SDS011;11985;49.404;7.734;2023-04-30T02:31:12;27.70;;;17.23;;
23614;SDS011;11985;49.404;7.734;2023-04-30T02:36:13;25.25;;;17.30;;
23614;SDS011;11985;49.404;7.734;2023-04-30T02:41:15;27.58;;;17.33;;
23614;SDS011;11985;49.404;7.734;2023-04-30T02:46:18;24.08;;;15.77;;
23614;SDS011;11985;49.404;7.734;2023-04-30T02:51:19;28.15;;;19.02;;
23614;SDS011;11985;49.404;7.734;2023-04-30T02:56:21;31.30;;;18.75;;
23614;SDS011;11985;49.404;7.734;2023-04-30T03:01:24;28.90;;;18.42;;
23614;SDS011;11985;49.404;7.734;2023-04-30T03:06:26;28.08;;;18.00;;
23614;SDS011;11985;49.404;7.734;2023-04-30T03:11:27;29.67;;;18.88;;
23614;SDS011;11985;49.404;7.734;2023-04-30T03:16:30;34.30;;;19.83;;
23614;SDS011;11985;49.404;7.734;2023-04-30T03:21:32;28.83;;;19.23;;
23614;SDS011;11985;49.404;7.734;2023-04-30T03:26:34;31.88;;;19.60;;
23614;SDS011;11985;49.404;7.734;2023-04-30T03:31:37;29.17;;;19.05;;
23614;SDS011;11985;49.404;7.734;2023-04-30T03:36:38;33.88;;;19.95;;
23614;SDS011;11985;49.404;7.734;2023-04-30T03:41:40;31.27;;;20.23;;
23614;SDS011;11985;49.404;7.734;2023-04-30T03:46:43;31.92;;;20.75;;
23614;SDS011;11985;49.404;7.734;2023-04-30T03:51:45;31.60;;;20.67;;
23614;SDS011;11985;49.404;7.734;2023-04-30T03:56:46;31.92;;;20.88;;
23614;SDS011;11985;49.404;7.734;2023-04-30T04:01:49;36.35;;;22.23;;
23614;SDS011;11985;49.404;7.734;2023-04-30T04:06:51;28.42;;;19.17;;
23614;SDS011;11985;49.404;7.734;2023-04-30T04:11:53;32.63;;;21.20;;
23614;SDS011;11985;49.404;7.734;2023-04-30T04:16:56;34.38;;;20.92;;
23614;SDS011;11985;49.404;7.734;2023-04-30T04:21:59;34.40;;;22.83;;
23614;SDS011;11985;49.404;7.734;2023-04-30T04:27:00;32.50;;;22.10;;
23614;SDS011;11985;49.404;7.734;2023-04-30T04:32:04;34.03;;;22.27;;
23614;SDS011;11985;49.404;7.734;2023-04-30T04:37:05;37.42;;;21.60;;
23614;SDS011;11985;49.404;7.734;2023-04-30T04:42:07;36.33;;;22.80;;
23614;SDS011;11985;49.404;7.734;2023-04-30T04:47:10;35.10;;;21.65;;
23614;SDS011;11985;49.404;7.734;2023-04-30T04:52:12;31.17;;;21.48;;
23614;SDS011;11985;49.404;7.734;2023-04-30T04:57:13;34.55;;;23.13;;
23614;SDS011;11985;49.404;7.734;2023-04-30T05:02:16;36.22;;;22.30;;
23614;SDS011;11985;49.404;7.734;2023-04-30T05:07:18;35.95;;;21.73;;
23614;SDS011;11985;49.404;7.734;2023-04-30T05:12:20;31.40;;;21.40;;
23614;SDS011;11985;49.404;7.734;2023-04-30T05:17:23;32.50;;;20.60;;
23614;SDS011;11985;49.404;7.734;2023-04-30T05:22:25;30.52;;;20.35;;
23614;SDS011;11985;49.404;7.734;2023-04-30T05:27:26;28.55;;;18.50;;
23614;SDS011;11985;49.404;7.734;2023-04-30T05:32:29;30.40;;;19.58;;
23614;SDS011;11985;49.404;7.734;2023-04-30T05:37:31;31.33;;;18.25;;
23614;SDS011;11985;49.404;7.734;2023-04-30T05:42:33;27.25;;;17.70;;
23614;SDS011;11985;49.404;7.734;2023-04-30T05:47:36;26.50;;;18.63;;
23614;SDS011;11985;49.404;7.734;2023-04-30T05:52:37;29.17;;;16.58;;
23614;SDS011;11985;49.404;7.734;2023-04-30T05:57:39;24.13;;;17.13;;
23614;SDS011;11985;49.404;7.734;2023-04-30T06:02:42;24.88;;;17.40;;
23614;SDS011;11985;49.404;7.734;2023-04-30T06:07:43;22.55;;;15.88;;
23614;SDS011;11985;49.404;7.734;2023-04-30T06:12:45;20.90;;;15.30;;
23614;SDS011;11985;49.404;7.734;2023-04-30T06:17:48;26.05;;;15.68;;
23614;SDS011;11985;49.404;7.734;2023-04-30T06:22:50;22.38;;;15.00;;
23614;SDS011;11985;49.404;7.734;2023-04-30T06:27:51;23.75;;;15.95;;
23614;SDS011;11985;49.404;7.734;2023-04-30T06:32:55;20.85;;;14.18;;
23614;SDS011;11985;49.404;7.734;2023-04-30T06:37:56;20.65;;;13.90;;
23614;SDS011;11985;49.404;7.734;2023-04-30T06:42:58;18.52;;;13.45;;
23614;SDS011;11985;49.404;7.734;2023-04-30T06:48:01;20.55;;;12.77;;
23614;SDS011;11985;49.404;7.734;2023-04-30T06:53:03;18.92;;;12.10;;
23614;SDS011;11985;49.404;7.734;2023-04-30T06:58:04;20.48;;;12.90;;
23614;SDS011;11985;49.404;7.734;2023-04-30T07:03:08;17.48;;;11.38;;
23614;SDS011;11985;49.404;7.734;2023-04-30T07:08:10;17.77;;;10.30;;
23614;SDS011;11985;49.404;7.734;2023-04-30T07:13:12;15.35;;;10.77;;
23614;SDS011;11985;49.404;7.734;2023-04-30T07:18:15;16.95;;;9.93;;
23614;SDS011;11985;49.404;7.734;2023-04-30T07:23:17;16.60;;;10.35;;
23614;SDS011;11985;49.404;7.734;2023-04-30T07:28:20;17.95;;;10.63;;
23614;SDS011;11985;49.404;7.734;2023-04-30T07:33:23;13.18;;;9.43;;
23614;SDS011;11985;49.404;7.734;2023-04-30T07:38:24;12.75;;;9.20;;
23614;SDS011;11985;49.404;7.734;2023-04-30T07:43:26;11.32;;;8.75;;
23614;SDS011;11985;49.404;7.734;2023-04-30T07:48:29;13.07;;;8.82;;
23614;SDS011;11985;49.404;7.734;2023-04-30T07:53:31;14.27;;;9.00;;
23614;SDS011;11985;49.404;7.734;2023-04-30T07:58:32;14.00;;;8.45;;
23614;SDS011;11985;49.404;7.734;2023-04-30T08:03:36;13.63;;;7.90;;
23614;SDS011;11985;49.404;7.734;2023-04-30T08:08:37;15.38;;;8.20;;
23614;SDS011;11985;49.404;7.734;2023-04-30T08:13:39;11.32;;;7.47;;
23614;SDS011;11985;49.404;7.734;2023-04-30T08:18:42;10.02;;;7.60;;
23614;SDS011;11985;49.404;7.734;2023-04-30T08:23:45;17.90;;;8.40;;
23614;SDS011;11985;49.404;7.734;2023-04-30T08:28:47;11.45;;;6.25;;
23614;SDS011;11985;49.404;7.734;2023-04-30T08:33:50;11.50;;;6.35;;
23614;SDS011;11985;49.404;7.734;2023-04-30T08:38:52;5.95;;;4.95;;
23614;SDS011;11985;49.404;7.734;2023-04-30T08:43:53;6.97;;;4.65;;
23614;SDS011;11985;49.404;7.734;2023-04-30T08:49:01;9.32;;;5.00;;
23614;SDS011;11985;49.404;7.734;2023-04-30T08:54:03;7.43;;;5.00;;
23614;SDS011;11985;49.404;7.734;2023-04-30T08:59:05;9.50;;;6.07;;
23614;SDS011;11985;49.404;7.734;2023-04-30T09:04:08;6.63;;;3.92;;
23614;SDS011;11985;49.404;7.734;2023-04-30T09:09:11;5.75;;;4.10;;
23614;SDS011;11985;49.404;7.734;2023-04-30T09:14:14;4.18;;;3.47;;
23614;SDS011;11985;49.404;7.734;2023-04-30T09:19:26;5.88;;;3.47;;
23614;SDS011;11985;49.404;7.734;2023-04-30T09:24:28;4.97;;;3.27;;
23614;SDS011;11985;49.404;7.734;2023-04-30T09:29:46;6.68;;;2.65;;
23614;SDS011;11985;49.404;7.734;2023-04-30T09:34:49;6.45;;;3.60;;
23614;SDS011;11985;49.404;7.734;2023-04-30T09:39:51;6.38;;;3.97;;
23614;SDS011;11985;49.404;7.734;2023-04-30T09:49:59;5.47;;;2.80;;
23614;SDS011;11985;49.404;7.734;2023-04-30T09:55:00;6.00;;;3.30;;
23614;SDS011;11985;49.404;7.734;2023-04-30T10:00:02;3.78;;;3.00;;
23614;SDS011;11985;49.404;7.734;2023-04-30T10:05:08;6.03;;;3.60;;
23614;SDS011;11985;49.404;7.734;2023-04-30T10:10:10;6.55;;;3.45;;
23614;SDS011;11985;49.404;7.734;2023-04-30T10:15:14;4.60;;;3.35;;
23614;SDS011;11985;49.404;7.734;2023-04-30T10:20:19;5.95;;;3.15;;
23614;SDS011;11985;49.404;7.734;2023-04-30T10:25:23;12.23;;;4.10;;
23614;SDS011;11985;49.404;7.734;2023-04-30T10:30:27;5.95;;;3.63;;
23614;SDS011;11985;49.404;7.734;2023-04-30T10:35:34;5.50;;;3.73;;
23614;SDS011;11985;49.404;7.734;2023-04-30T10:40:45;5.35;;;3.25;;
23614;SDS011;11985;49.404;7.734;2023-04-30T10:45:47;5.32;;;3.30;;
23614;SDS011;11985;49.404;7.734;2023-04-30T10:50:50;6.53;;;2.50;;
23614;SDS011;11985;49.404;7.734;2023-04-30T10:55:53;3.80;;;2.30;;
23614;SDS011;11985;49.404;7.734;2023-04-30T11:00:59;3.63;;;2.55;;
23614;SDS011;11985;49.404;7.734;2023-04-30T11:06:08;3.58;;;2.65;;
23614;SDS011;11985;49.404;7.734;2023-04-30T11:11:16;4.82;;;2.60;;
23614;SDS011;11985;49.404;7.734;2023-04-30T11:16:20;5.72;;;2.35;;
23614;SDS011;11985;49.404;7.734;2023-04-30T11:21:31;4.75;;;2.53;;
23614;SDS011;11985;49.404;7.734;2023-04-30T11:32:05;8.65;;;3.70;;
23614;SDS011;11985;49.404;7.734;2023-04-30T11:37:08;6.47;;;3.58;;
23614;SDS011;11985;49.404;7.734;2023-04-30T11:42:15;6.35;;;3.33;;
23614;SDS011;11985;49.404;7.734;2023-04-30T11:47:16;6.50;;;3.73;;
23614;SDS011;11985;49.404;7.734;2023-04-30T11:52:23;6.80;;;3.00;;
23614;SDS011;11985;49.404;7.734;2023-04-30T11:57:25;6.65;;;3.20;;
23614;SDS011;11985;49.404;7.734;2023-04-30T12:02:27;4.72;;;2.47;;
23614;SDS011;11985;49.404;7.734;2023-04-30T12:07:30;8.55;;;2.85;;
23614;SDS011;11985;49.404;7.734;2023-04-30T12:12:32;3.55;;;2.58;;
23614;SDS011;11985;49.404;7.734;2023-04-30T12:17:37;3.88;;;2.50;;
23614;SDS011;11985;49.404;7.734;2023-04-30T12:22:40;8.30;;;2.78;;
23614;SDS011;11985;49.404;7.734;2023-04-30T12:27:44;7.68;;;2.75;;
23614;SDS011;11985;49.404;7.734;2023-04-30T12:32:49;9.02;;;2.60;;
23614;SDS011;11985;49.404;7.734;2023-04-30T12:38:01;3.22;;;2.30;;
23614;SDS011;11985;49.404;7.734;2023-04-30T12:43:05;3.33;;;2.47;;
23614;SDS011;11985;49.404;7.734;2023-04-30T12:48:08;2.70;;;2.00;;
23614;SDS011;11985;49.404;7.734;2023-04-30T12:53:11;6.07;;;2.30;;
23614;SDS011;11985;49.404;7.734;2023-04-30T12:58:12;4.10;;;2.05;;
23614;SDS011;11985;49.404;7.734;2023-04-30T13:03:16;3.88;;;2.30;;
23614;SDS011;11985;49.404;7.734;2023-04-30T13:08:21;4.27;;;1.83;;
23614;SDS011;11985;49.404;7.734;2023-04-30T13:13:22;5.85;;;2.30;;
23614;SDS011;11985;49.404;7.734;2023-04-30T13:18:24;3.70;;;1.92;;
23614;SDS011;11985;49.404;7.734;2023-04-30T13:23:27;3.22;;;2.10;;
23614;SDS011;11985;49.404;7.734;2023-04-30T13:28:29;5.10;;;2.08;;
23614;SDS011;11985;49.404;7.734;2023-04-30T13:33:30;3.17;;;2.35;;
23614;SDS011;11985;49.404;7.734;2023-04-30T13:38:33;2.83;;;1.95;;
23614;SDS011;11985;49.404;7.734;2023-04-30T13:43:35;4.25;;;2.08;;
23614;SDS011;11985;49.404;7.734;2023-04-30T13:48:37;3.45;;;2.00;;
23614;SDS011;11985;49.404;7.734;2023-04-30T13:53:40;5.40;;;2.30;;
23614;SDS011;11985;49.404;7.734;2023-04-30T13:58:42;3.65;;;1.58;;
23614;SDS011;11985;49.404;7.734;2023-04-30T14:03:43;5.75;;;1.80;;
23614;SDS011;11985;49.404;7.734;2023-04-30T14:08:48;4.38;;;2.08;;
23614;SDS011;11985;49.404;7.734;2023-04-30T14:13:49;5.55;;;1.90;;
23614;SDS011;11985;49.404;7.734;2023-04-30T14:18:51;3.63;;;2.00;;
23614;SDS011;11985;49.404;7.734;2023-04-30T14:23:54;3.53;;;1.73;;
23614;SDS011;11985;49.404;7.734;2023-04-30T14:28:56;3.30;;;1.70;;
23614;SDS011;11985;49.404;7.734;2023-04-30T14:33:57;3.10;;;1.90;;
23614;SDS011;11985;49.404;7.734;2023-04-30T14:39:00;3.28;;;2.10;;
23614;SDS011;11985;49.404;7.734;2023-04-30T14:44:03;2.10;;;1.73;;
23614;SDS011;11985;49.404;7.734;2023-04-30T14:49:05;2.78;;;1.75;;
23614;SDS011;11985;49.404;7.734;2023-04-30T14:54:08;6.85;;;2.05;;
23614;SDS011;11985;49.404;7.734;2023-04-30T14:59:10;5.03;;;1.63;;
23614;SDS011;11985;49.404;7.734;2023-04-30T15:04:12;2.88;;;1.65;;
23614;SDS011;11985;49.404;7.734;2023-04-30T15:09:15;2.10;;;1.70;;
23614;SDS011;11985;49.404;7.734;2023-04-30T15:14:16;2.17;;;1.63;;
23614;SDS011;11985;49.404;7.734;2023-04-30T15:19:18;3.38;;;1.85;;
23614;SDS011;11985;49.404;7.734;2023-04-30T15:24:21;2.80;;;1.85;;
23614;SDS011;11985;49.404;7.734;2023-04-30T15:29:23;2.30;;;1.67;;
23614;SDS011;11985;49.404;7.734;2023-04-30T15:34:24;2.97;;;1.45;;
23614;SDS011;11985;49.404;7.734;2023-04-30T15:39:27;2.53;;;1.67;;
23614;SDS011;11985;49.404;7.734;2023-04-30T15:44:30;3.47;;;1.80;;
23614;SDS011;11985;49.404;7.734;2023-04-30T15:49:31;3.58;;;1.50;;
23614;SDS011;11985;49.404;7.734;2023-04-30T15:54:34;4.53;;;1.90;;
23614;SDS011;11985;49.404;7.734;2023-04-30T15:59:36;1.92;;;1.52;;
23614;SDS011;11985;49.404;7.734;2023-04-30T16:04:37;5.85;;;1.98;;
23614;SDS011;11985;49.404;7.734;2023-04-30T16:09:41;4.60;;;2.05;;
23614;SDS011;11985;49.404;7.734;2023-04-30T16:19:46;2.63;;;2.00;;
23614;SDS011;11985;49.404;7.734;2023-04-30T16:24:49;4.00;;;1.90;;
23614;SDS011;11985;49.404;7.734;2023-04-30T16:29:51;5.32;;;2.15;;
23614;SDS011;11985;49.404;7.734;2023-04-30T16:34:52;3.17;;;1.70;;
23614;SDS011;11985;49.404;7.734;2023-04-30T16:39:55;2.72;;;1.55;;
23614;SDS011;11985;49.404;7.734;2023-04-30T16:44:57;3.33;;;1.73;;
23614;SDS011;11985;49.404;7.734;2023-04-30T16:49:58;5.32;;;4.13;;
23614;SDS011;11985;49.404;7.734;2023-04-30T16:55:01;4.88;;;2.17;;
23614;SDS011;11985;49.404;7.734;2023-04-30T17:00:04;3.03;;;1.70;;
23614;SDS011;11985;49.404;7.734;2023-04-30T17:05:08;3.22;;;1.60;;
23614;SDS011;11985;49.404;7.734;2023-04-30T17:10:11;7.80;;;2.42;;
23614;SDS011;11985;49.404;7.734;2023-04-30T17:15:13;2.40;;;1.50;;
23614;SDS011;11985;49.404;7.734;2023-04-30T17:20:17;2.10;;;1.83;;
23614;SDS011;11985;49.404;7.734;2023-04-30T17:25:20;3.30;;;1.70;;
23614;SDS011;11985;49.404;7.734;2023-04-30T17:30:22;1.73;;;1.42;;
23614;SDS011;11985;49.404;7.734;2023-04-30T17:35:25;2.47;;;1.50;;
23614;SDS011;11985;49.404;7.734;2023-04-30T17:40:28;5.50;;;1.70;;
23614;SDS011;11985;49.404;7.734;2023-04-30T17:45:31;2.35;;;1.67;;
23614;SDS011;11985;49.404;7.734;2023-04-30T17:50:32;1.83;;;1.50;;
23614;SDS011;11985;49.404;7.734;2023-04-30T17:55:36;1.85;;;1.60;;
23614;SDS011;11985;49.404;7.734;2023-04-30T18:00:37;3.40;;;1.50;;
23614;SDS011;11985;49.404;7.734;2023-04-30T18:05:41;2.75;;;1.27;;
23614;SDS011;11985;49.404;7.734;2023-04-30T18:10:46;5.38;;;1.50;;
23614;SDS011;11985;49.404;7.734;2023-04-30T18:15:48;1.57;;;1.47;;
23614;SDS011;11985;49.404;7.734;2023-04-30T18:20:50;2.05;;;1.52;;
23614;SDS011;11985;49.404;7.734;2023-04-30T18:25:53;1.60;;;1.40;;
23614;SDS011;11985;49.404;7.734;2023-04-30T18:30:55;1.80;;;1.50;;
23614;SDS011;11985;49.404;7.734;2023-04-30T18:35:57;2.65;;;1.50;;
23614;SDS011;11985;49.404;7.734;2023-04-30T18:41:02;4.82;;;1.95;;
23614;SDS011;11985;49.404;7.734;2023-04-30T18:46:04;2.90;;;1.80;;
23614;SDS011;11985;49.404;7.734;2023-04-30T18:51:06;6.82;;;1.80;;
23614;SDS011;11985;49.404;7.734;2023-04-30T18:56:09;6.10;;;1.90;;
23614;SDS011;11985;49.404;7.734;2023-04-30T19:01:11;3.67;;;1.83;;
23614;SDS011;11985;49.404;7.734;2023-04-30T19:06:13;5.97;;;1.73;;
23614;SDS011;11985;49.404;7.734;2023-04-30T19:11:16;2.50;;;1.73;;
23614;SDS011;11985;49.404;7.734;2023-04-30T19:16:17;4.93;;;2.20;;
23614;SDS011;11985;49.404;7.734;2023-04-30T19:21:19;3.08;;;2.08;;
23614;SDS011;11985;49.404;7.734;2023-04-30T19:26:22;2.88;;;2.00;;
23614;SDS011;11985;49.404;7.734;2023-04-30T19:31:24;7.78;;;2.63;;
23614;SDS011;11985;49.404;7.734;2023-04-30T19:36:26;5.32;;;2.38;;
23614;SDS011;11985;49.404;7.734;2023-04-30T19:41:29;3.67;;;2.03;;
23614;SDS011;11985;49.404;7.734;2023-04-30T19:46:30;3.70;;;1.75;;
23614;SDS011;11985;49.404;7.734;2023-04-30T19:51:32;2.13;;;1.70;;
23614;SDS011;11985;49.404;7.734;2023-04-30T19:56:35;2.70;;;1.77;;
23614;SDS011;11985;49.404;7.734;2023-04-30T20:01:37;4.20;;;2.00;;
23614;SDS011;11985;49.404;7.734;2023-04-30T20:06:39;3.30;;;1.95;;
23614;SDS011;11985;49.404;7.734;2023-04-30T20:11:42;3.72;;;2.25;;
23614;SDS011;11985;49.404;7.734;2023-04-30T20:16:48;6.10;;;2.10;;
23614;SDS011;11985;49.404;7.734;2023-04-30T20:21:53;2.90;;;2.22;;
23614;SDS011;11985;49.404;7.734;2023-04-30T20:26:56;4.18;;;2.17;;
23614;SDS011;11985;49.404;7.734;2023-04-30T20:31:57;3.92;;;2.10;;
23614;SDS011;11985;49.404;7.734;2023-04-30T20:36:59;2.53;;;2.20;;
23614;SDS011;11985;49.404;7.734;2023-04-30T20:42:03;5.75;;;2.22;;
23614;SDS011;11985;49.404;7.734;2023-04-30T20:47:05;10.25;;;2.30;;
23614;SDS011;11985;49.404;7.734;2023-04-30T20:52:07;4.00;;;2.40;;
23614;SDS011;11985;49.404;7.734;2023-04-30T20:57:12;8.85;;;2.78;;
23614;SDS011;11985;49.404;7.734;2023-04-30T21:02:14;5.28;;;2.40;;
23614;SDS011;11985;49.404;7.734;2023-04-30T21:07:15;8.20;;;2.67;;
23614;SDS011;11985;49.404;7.734;2023-04-30T21:12:18;6.57;;;2.20;;
23614;SDS011;11985;49.404;7.734;2023-04-30T21:17:20;7.80;;;2.47;;
23614;SDS011;11985;49.404;7.734;2023-04-30T21:22:21;9.98;;;2.60;;
23614;SDS011;11985;49.404;7.734;2023-04-30T21:27:25;5.82;;;2.45;;
23614;SDS011;11985;49.404;7.734;2023-04-30T21:32:26;6.95;;;2.35;;
23614;SDS011;11985;49.404;7.734;2023-04-30T21:37:28;3.22;;;2.50;;
23614;SDS011;11985;49.404;7.734;2023-04-30T21:42:31;4.28;;;2.47;;
23614;SDS011;11985;49.404;7.734;2023-04-30T21:47:33;3.63;;;2.40;;
23614;SDS011;11985;49.404;7.734;2023-04-30T21:52:34;3.60;;;1.98;;
23614;SDS011;11985;49.404;7.734;2023-04-30T21:57:37;5.93;;;2.60;;
23614;SDS011;11985;49.404;7.734;2023-04-30T22:02:39;4.07;;;2.72;;
23614;SDS011;11985;49.404;7.734;2023-04-30T22:07:41;3.03;;;2.38;;
23614;SDS011;11985;49.404;7.734;2023-04-30T22:12:44;4.60;;;2.40;;
23614;SDS011;11985;49.404;7.734;2023-04-30T22:17:45;2.80;;;2.45;;
23614;SDS011;11985;49.404;7.734;2023-04-30T22:22:48;4.60;;;2.47;;
23614;SDS011;11985;49.404;7.734;2023-04-30T22:27:51;2.50;;;2.30;;
23614;SDS011;11985;49.404;7.734;2023-04-30T22:32:54;6.97;;;2.97;;
23614;SDS011;11985;49.404;7.734;2023-04-30T22:37:56;3.25;;;2.35;;
23614;SDS011;11985;49.404;7.734;2023-04-30T22:42:59;5.78;;;2.90;;
23614;SDS011;11985;49.404;7.734;2023-04-30T22:48:01;4.30;;;2.33;;
23614;SDS011;11985;49.404;7.734;2023-04-30T22:53:03;4.32;;;2.40;;
23614;SDS011;11985;49.404;7.734;2023-04-30T22:58:06;4.63;;;2.38;;
23614;SDS011;11985;49.404;7.734;2023-04-30T23:03:07;3.65;;;2.45;;
23614;SDS011;11985;49.404;7.734;2023-04-30T23:08:10;5.25;;;2.45;;
23614;SDS011;11985;49.404;7.734;2023-04-30T23:13:13;5.03;;;2.72;;
23614;SDS011;11985;49.404;7.734;2023-04-30T23:18:15;3.58;;;2.65;;
23614;SDS011;11985;49.404;7.734;2023-04-30T23:23:16;14.30;;;3.22;;
23614;SDS011;11985;49.404;7.734;2023-04-30T23:28:19;5.50;;;2.90;;
23614;SDS011;11985;49.404;7.734;2023-04-30T23:33:21;9.05;;;3.05;;
23614;SDS011;11985;49.404;7.734;2023-04-30T23:38:22;6.60;;;3.05;;
23614;SDS011;11985;49.404;7.734;2023-04-30T23:43:26;2.97;;;2.55;;
23614;SDS011;11985;49.404;7.734;2023-04-30T23:48:28;4.07;;;2.90;;
23614;SDS011;11985;49.404;7.734;2023-04-30T23:53:30;3.90;;;3.05;;
23614;SDS011;11985;49.404;7.734;2023-04-30T23:58:33;3.80;;;3.17;;
